Time;durP1;ratioP1;P1;durP2;ratioP2;P2;SDS_P1;SDS_P2;PMS_P1;PMS_P2;Temp;Humidity;BMP_temperature;BMP_pressure;BME280_temperature;BME280_humidity;BME280_pressure;Samples;Min_cycle;Max_cycle;Signal;HPM_P1;HPM_P2
2022/08/23 00:00:41;;;;;;;;;;;20.00;99.90;;;;;;5069974;28;20384;-79
2022/08/23 00:03:09;;;;;;;;;;;20.00;99.90;;;;;;5062425;28;19976;-79
2022/08/23 00:05:36;;;;;;;;;;;20.00;99.90;;;;;;5074522;28;19952;-77
2022/08/23 00:08:03;;;;;;;;;;;19.90;99.90;;;;;;5059566;28;20415;-77
2022/08/23 00:10:30;;;;;;;;;;;19.90;99.90;;;;;;5066582;28;20339;-77
2022/08/23 00:12:57;;;;;;;;;;;19.80;99.90;;;;;;5048183;28;19925;-77
2022/08/23 00:15:24;;;;;;;;;;;19.70;99.90;;;;;;5069470;28;20619;-79
2022/08/23 00:17:51;;;;;;;;;;;19.70;99.90;;;;;;5069630;28;19958;-79
2022/08/23 00:20:19;;;;;;;;;;;19.60;99.90;;;;;;5056748;28;19929;-77
2022/08/23 00:22:46;;;;;;;;;;;19.50;99.90;;;;;;5077340;28;19931;-80
2022/08/23 00:25:14;;;;;;;;;;;19.40;99.90;;;;;;5060301;28;19936;-77
2022/08/23 00:27:41;;;;;;;;;;;19.30;99.90;;;;;;5064750;28;19975;-78
2022/08/23 00:30:09;;;;;;;;;;;19.20;99.90;;;;;;5069058;28;19954;-77
2022/08/23 00:32:37;;;;;;;;;;;19.20;99.90;;;;;;5063010;28;19929;-78
2022/08/23 00:35:05;;;;;;;;;;;19.10;99.90;;;;;;5066888;28;19928;-77
2022/08/23 00:37:33;;;;;;;;;;;19.00;99.90;;;;;;5071128;28;19932;-78
2022/08/23 00:40:00;;;;;;;;;;;18.90;99.90;;;;;;5059737;28;19963;-78
2022/08/23 00:48:13;;;;;;;;;;;18.60;99.90;;;;;;5031184;28;19996;-81
2022/08/23 00:50:43;;;;;;;;;;;18.50;99.90;;;;;;5051509;28;19936;-78
2022/08/23 00:53:14;;;;;;;;;;;18.50;99.90;;;;;;5046933;28;19936;-78
2022/08/23 00:55:43;;;;;;;;;;;18.40;99.90;;;;;;5055612;28;19986;-78
2022/08/23 00:58:11;;;;;;;;;;;18.30;99.90;;;;;;5059681;28;19979;-78
2022/08/23 01:00:38;;;;;;;;;;;18.30;99.90;;;;;;5057788;28;19932;-80
2022/08/23 01:03:07;;;;;;;;;;;18.30;99.90;;;;;;5056558;28;19935;-79
2022/08/23 01:05:41;;;;;;;;;;;18.20;99.90;;;;;;5056415;28;19928;-79
2022/08/23 01:08:08;;;;;;;;;;;18.10;99.90;;;;;;5062540;28;20685;-78
2022/08/23 01:10:38;;;;;;;;;;;18.00;99.90;;;;;;5057549;28;19929;-78
2022/08/23 01:13:08;;;;;;;;;;;18.00;99.90;;;;;;5051460;28;19959;-78
2022/08/23 01:15:38;;;;;;;;;;;17.90;99.90;;;;;;5061170;28;19951;-78
2022/08/23 01:18:07;;;;;;;;;;;17.80;99.90;;;;;;5056479;28;19929;-78
2022/08/23 01:20:37;;;;;;;;;;;17.80;99.90;;;;;;5072297;28;20525;-78
2022/08/23 01:23:06;;;;;;;;;;;17.70;99.90;;;;;;5065862;28;19929;-78
2022/08/23 01:25:34;;;;;;;;;;;17.70;99.90;;;;;;5054338;28;20621;-78
2022/08/23 01:28:01;;;;;;;;;;;17.70;99.90;;;;;;5058771;28;20424;-79
2022/08/23 01:30:32;;;;;;;;;;;17.60;99.90;;;;;;5064521;28;19935;-79
2022/08/23 01:33:04;;;;;;;;;;;17.60;99.90;;;;;;5060158;28;19964;-78
2022/08/23 01:35:33;;;;;;;;;;;17.60;99.90;;;;;;5080528;28;20653;-79
2022/08/23 01:38:01;;;;;;;;;;;17.50;99.90;;;;;;5078569;28;20003;-79
2022/08/23 01:40:30;;;;;;;;;;;17.40;99.90;;;;;;5080264;28;20395;-77
2022/08/23 01:42:58;;;;;;;;;;;17.40;99.90;;;;;;5060160;28;19933;-77
2022/08/23 01:45:26;;;;;;;;;;;17.40;99.90;;;;;;5067693;28;19959;-78
2022/08/23 01:47:53;;;;;;;;;;;17.30;99.90;;;;;;5058560;28;20087;-78
2022/08/23 01:50:21;;;;;;;;;;;17.30;99.90;;;;;;5054754;28;20655;-77
2022/08/23 01:52:48;;;;;;;;;;;17.20;99.90;;;;;;5061929;28;19924;-77
2022/08/23 01:55:17;;;;;;;;;;;17.20;99.90;;;;;;5066501;28;20415;-78
2022/08/23 01:57:46;;;;;;;;;;;17.20;99.90;;;;;;5060460;28;19979;-77
2022/08/23 02:00:15;;;;;;;;;;;17.20;99.90;;;;;;5060977;28;19936;-78
2022/08/23 02:02:42;;;;;;;;;;;17.10;99.90;;;;;;5069265;28;19929;-79
2022/08/23 02:05:09;;;;;;;;;;;17.10;99.90;;;;;;5069377;28;19944;-79
2022/08/23 02:07:36;;;;;;;;;;;17.10;99.90;;;;;;5071059;28;19935;-78
2022/08/23 02:10:05;;;;;;;;;;;17.10;99.90;;;;;;5070807;28;19968;-79
2022/08/23 02:12:32;;;;;;;;;;;17.00;99.90;;;;;;5057545;28;20347;-78
2022/08/23 02:15:09;;;;;;;;;;;16.90;99.90;;;;;;5084134;28;19954;-78
2022/08/23 02:17:40;;;;;;;;;;;16.90;99.90;;;;;;5086963;28;19971;-78
2022/08/23 02:20:08;;;;;;;;;;;16.90;99.90;;;;;;5061825;28;19932;-79
2022/08/23 02:22:36;;;;;;;;;;;16.80;99.90;;;;;;5065249;28;19986;-78
2022/08/23 02:25:03;;;;;;;;;;;16.80;99.90;;;;;;5066148;28;19974;-78
2022/08/23 02:27:30;;;;;;;;;;;16.70;99.90;;;;;;5065171;28;19928;-79
2022/08/23 02:29:57;;;;;;;;;;;16.70;99.90;;;;;;5063746;28;19929;-79
2022/08/23 02:32:24;;;;;;;;;;;16.70;99.90;;;;;;5070442;28;19946;-79
2022/08/23 02:34:53;;;;;;;;;;;16.70;99.90;;;;;;5069879;28;19932;-80
2022/08/23 02:37:21;;;;;;;;;;;16.60;99.90;;;;;;5070754;28;19936;-82
2022/08/23 02:39:49;;;;;;;;;;;16.60;99.90;;;;;;5053974;28;19936;-81
2022/08/23 02:42:16;;;;;;;;;;;16.60;99.90;;;;;;5065341;28;19933;-80
2022/08/23 02:44:44;;;;;;;;;;;16.60;99.90;;;;;;5073384;28;19920;-80
2022/08/23 02:47:11;;;;;;;;;;;16.50;99.90;;;;;;5073125;28;19943;-81
2022/08/23 02:49:41;;;;;;;;;;;16.50;99.90;;;;;;5053913;28;20312;-80
2022/08/23 02:52:09;;;;;;;;;;;16.50;99.90;;;;;;5069117;28;19942;-80
2022/08/23 02:54:36;;;;;;;;;;;16.40;99.90;;;;;;5072998;28;19932;-81
2022/08/23 02:57:04;;;;;;;;;;;16.40;99.90;;;;;;5073217;28;20311;-81
2022/08/23 02:59:31;;;;;;;;;;;16.40;99.90;;;;;;5065118;28;20015;-80
2022/08/23 03:01:59;;;;;;;;;;;16.30;99.90;;;;;;5064012;28;19924;-81
2022/08/23 03:04:33;;;;;;;;;;;16.30;99.90;;;;;;5072803;28;20030;-79
2022/08/23 03:07:01;;;;;;;;;;;16.30;99.90;;;;;;5072322;28;19928;-79
2022/08/23 03:09:29;;;;;;;;;;;16.30;99.90;;;;;;5051593;28;20027;-77
2022/08/23 03:11:56;;;;;;;;;;;16.30;99.90;;;;;;5052845;28;19978;-78
2022/08/23 03:14:26;;;;;;;;;;;16.20;99.90;;;;;;5052736;28;19947;-78
2022/08/23 03:16:53;;;;;;;;;;;16.20;99.90;;;;;;5054298;28;19975;-78
2022/08/23 03:19:20;;;;;;;;;;;16.80;99.90;;;;;;5052464;28;20007;-77
2022/08/23 03:21:47;;;;;;;;;;;16.20;99.90;;;;;;5050710;28;19937;-77
2022/08/23 03:24:17;;;;;;;;;;;16.20;99.90;;;;;;5049339;28;20382;-77
2022/08/23 03:26:45;;;;;;;;;;;16.10;99.90;;;;;;5050649;28;19935;-77
2022/08/23 03:29:13;;;;;;;;;;;16.10;99.90;;;;;;5052524;28;20034;-78
2022/08/23 03:31:57;;;;;;;;;;;16.10;99.90;;;;;;5053369;28;19932;-77
2022/08/23 03:34:24;;;;;;;;;;;16.10;99.90;;;;;;5053849;28;19988;-78
2022/08/23 03:36:52;;;;;;;;;;;16.10;99.90;;;;;;5054745;28;19929;-77
2022/08/23 03:39:19;;;;;;;;;;;16.00;99.90;;;;;;5061016;28;20131;-79
2022/08/23 03:41:48;;;;;;;;;;;16.00;99.90;;;;;;5094099;28;20407;-78
2022/08/23 03:44:15;;;;;;;;;;;16.00;99.90;;;;;;5093081;28;19934;-79
2022/08/23 03:46:44;;;;;;;;;;;16.00;99.90;;;;;;5094458;28;19978;-80
2022/08/23 03:49:10;;;;;;;;;;;16.00;99.90;;;;;;5088914;28;19962;-79
2022/08/23 03:51:45;;;;;;;;;;;16.00;99.90;;;;;;5074767;28;20015;-79
2022/08/23 03:54:12;;;;;;;;;;;15.90;99.90;;;;;;5062721;28;19929;-80
2022/08/23 03:56:49;;;;;;;;;;;15.90;99.90;;;;;;5073541;28;19930;-80
2022/08/23 03:59:17;;;;;;;;;;;15.90;99.90;;;;;;5073599;28;19940;-79
2022/08/23 04:01:44;;;;;;;;;;;15.90;99.90;;;;;;5071188;28;19933;-79
2022/08/23 04:04:11;;;;;;;;;;;15.90;99.90;;;;;;5085009;28;19948;-79
2022/08/23 04:06:48;;;;;;;;;;;15.90;99.90;;;;;;5061030;28;19939;-79
2022/08/23 04:09:16;;;;;;;;;;;15.80;99.90;;;;;;5079778;28;19929;-80
2022/08/23 04:11:44;;;;;;;;;;;15.80;99.90;;;;;;5058425;28;19939;-80
2022/08/23 04:14:12;;;;;;;;;;;15.80;99.90;;;;;;5067223;28;20308;-80
2022/08/23 04:16:41;;;;;;;;;;;15.80;99.90;;;;;;5066207;28;20513;-80
2022/08/23 04:19:11;;;;;;;;;;;15.80;99.90;;;;;;5067065;28;19929;-80
2022/08/23 04:21:43;;;;;;;;;;;15.80;99.90;;;;;;5065292;28;19971;-78
2022/08/23 04:24:10;;;;;;;;;;;15.70;99.90;;;;;;5067036;28;19959;-79
2022/08/23 04:26:38;;;;;;;;;;;15.70;99.90;;;;;;5072022;28;19932;-79
2022/08/23 04:29:05;;;;;;;;;;;15.70;99.90;;;;;;5055724;28;19939;-79
2022/08/23 04:31:33;;;;;;;;;;;15.70;99.90;;;;;;5051135;28;20031;-79
2022/08/23 04:34:02;;;;;;;;;;;15.60;99.90;;;;;;5053350;28;19975;-79
2022/08/23 04:36:31;;;;;;;;;;;15.70;99.90;;;;;;5054634;28;19929;-80
2022/08/23 04:38:58;;;;;;;;;;;15.70;99.90;;;;;;5060695;28;20046;-79
2022/08/23 04:44:10;;;;;;;;;;;15.70;99.90;;;;;;5065482;28;20509;-80
2022/08/23 04:46:38;;;;;;;;;;;;;;;;;;5066796;28;20395;-80
2022/08/23 04:49:07;;;;;;;;;;;15.80;99.90;;;;;;5065605;28;20441;-79
2022/08/23 04:51:34;;;;;;;;;;;15.80;99.90;;;;;;5064897;28;19928;-80
2022/08/23 04:54:01;;;;;;;;;;;15.90;99.90;;;;;;5070532;28;20418;-79
2022/08/23 04:56:51;;;;;;;;;;;15.90;99.90;;;;;;5067629;28;20507;-81
2022/08/23 04:59:18;;;;;;;;;;;15.90;99.90;;;;;;5060294;28;19929;-79
2022/08/23 05:01:52;;;;;;;;;;;15.90;99.90;;;;;;5072004;28;19925;-80
2022/08/23 05:04:20;;;;;;;;;;;16.00;99.90;;;;;;5073355;28;19928;-79
2022/08/23 05:06:48;;;;;;;;;;;16.00;99.90;;;;;;5072753;28;19929;-80
2022/08/23 05:09:15;;;;;;;;;;;16.10;99.90;;;;;;5072420;28;20284;-80
2022/08/23 05:11:42;;;;;;;;;;;16.10;99.90;;;;;;5071913;28;19944;-81
2022/08/23 05:14:09;;;;;;;;;;;16.20;99.90;;;;;;5071693;28;19935;-83
2022/08/23 05:16:36;;;;;;;;;;;16.30;99.90;;;;;;5063551;28;19936;-81
2022/08/23 05:19:09;;;;;;;;;;;16.40;99.90;;;;;;5056846;28;19931;-82
2022/08/23 05:21:44;;;;;;;;;;;16.50;99.90;;;;;;5059296;28;19928;-78
2022/08/23 05:24:11;;;;;;;;;;;16.60;99.90;;;;;;5066452;28;19928;-77
2022/08/23 05:26:39;;;;;;;;;;;16.70;99.90;;;;;;5066270;28;19936;-78
2022/08/23 05:29:08;;;;;;;;;;;16.90;99.90;;;;;;5066273;28;19994;-77
2022/08/23 05:31:42;;;;;;;;;;;17.00;99.90;;;;;;5063097;28;19928;-77
2022/08/23 05:34:09;;;;;;;;;;;17.20;99.90;;;;;;5050289;28;20431;-78
2022/08/23 05:36:45;;;;;;;;;;;17.40;99.90;;;;;;5064955;28;20007;-78
2022/08/23 05:39:14;;;;;;;;;;;17.60;99.90;;;;;;5059653;28;19928;-78
2022/08/23 05:41:45;;;;;;;;;;;18.10;99.90;;;;;;5062424;28;20037;-77
2022/08/23 05:44:13;;;;;;;;;;;19.10;99.90;;;;;;5061153;28;19928;-78
2022/08/23 05:46:42;;;;;;;;;;;20.10;99.90;;;;;;5061948;28;19928;-81
2022/08/23 05:49:27;;;;;;;;;;;21.20;99.90;;;;;;5057855;28;19953;-78
2022/08/23 05:51:56;;;;;;;;;;;22.50;99.90;;;;;;5059166;28;19994;-81
2022/08/23 05:54:27;;;;;;;;;;;23.50;99.90;;;;;;5057571;28;19928;-78
2022/08/23 05:57:34;;;;;;;;;;;24.50;99.90;;;;;;5051616;28;19992;-80
2022/08/23 06:00:01;;;;;;;;;;;25.60;99.90;;;;;;5034753;28;19928;-81
2022/08/23 06:02:28;;;;;;;;;;;27.20;99.90;;;;;;5046735;28;19929;-83
2022/08/23 06:04:55;;;;;;;;;;;27.20;99.90;;;;;;5072790;28;19928;-83
2022/08/23 06:07:24;;;;;;;;;;;28.00;99.90;;;;;;5068920;28;19932;-82
2022/08/23 06:09:51;;;;;;;;;;;28.60;99.90;;;;;;5076436;28;19924;-82
2022/08/23 06:12:18;;;;;;;;;;;30.00;99.90;;;;;;5074598;28;19932;-80
2022/08/23 06:14:45;;;;;;;;;;;29.90;99.90;;;;;;5070645;28;20414;-79
2022/08/23 06:17:12;;;;;;;;;;;30.50;99.90;;;;;;5067523;28;19928;-80
2022/08/23 06:19:39;;;;;;;;;;;31.00;99.90;;;;;;5063730;28;20022;-84
2022/08/23 06:22:37;;;;;;;;;;;31.70;99.90;;;;;;5066843;28;19995;-76
2022/08/23 06:25:04;;;;;;;;;;;31.80;99.90;;;;;;5062230;28;19928;-79
2022/08/23 06:27:47;;;;;;;;;;;32.20;99.90;;;;;;5063580;28;20430;-78
2022/08/23 06:30:14;;;;;;;;;;;32.60;99.90;;;;;;5067937;28;19934;-80
2022/08/23 06:32:43;;;;;;;;;;;33.00;99.90;;;;;;5064023;28;19928;-76
2022/08/23 06:35:29;;;;;;;;;;;33.40;99.90;;;;;;5058908;28;19936;-75
2022/08/23 06:38:05;;;;;;;;;;;33.80;99.80;;;;;;5056494;28;19933;-77
2022/08/23 06:41:09;;;;;;;;;;;34.10;98.90;;;;;;5058904;28;20428;-80
2022/08/23 06:43:47;;;;;;;;;;;34.30;97.20;;;;;;5058332;28;20016;-79
2022/08/23 06:46:20;;;;;;;;;;;34.70;95.90;;;;;;5073317;28;20383;-79
2022/08/23 06:48:48;;;;;;;;;;;35.10;94.80;;;;;;5053852;28;19970;-76
2022/08/23 06:51:18;;;;;;;;;;;35.40;93.50;;;;;;5062484;28;19929;-77
2022/08/23 06:53:59;;;;;;;;;;;36.50;92.20;;;;;;5046184;28;19932;-78
2022/08/23 06:56:45;;;;;;;;;;;35.90;90.10;;;;;;5046266;28;19952;-76
2022/08/23 06:59:19;;;;;;;;;;;35.90;86.70;;;;;;5065796;28;19932;-79
2022/08/23 07:02:07;;;;;;;;;;;35.80;86.40;;;;;;5044509;28;19939;-77
2022/08/23 07:05:06;;;;;;;;;;;35.90;85.70;;;;;;5062883;28;19928;-76
2022/08/23 07:07:40;;;;;;;;;;;35.90;84.00;;;;;;5068944;28;19924;-76
2022/08/23 07:10:09;;;;;;;;;;;37.20;83.80;;;;;;5069245;28;19928;-76
2022/08/23 07:12:38;;;;;;;;;;;36.70;85.10;;;;;;5069495;28;19925;-76
2022/08/23 07:15:05;;;;;;;;;;;36.80;79.80;;;;;;5068790;28;19929;-76
2022/08/23 07:17:32;;;;;;;;;;;36.80;77.90;;;;;;5062060;28;20291;-79
2022/08/23 07:20:00;;;;;;;;;;;36.60;77.00;;;;;;5059478;28;20248;-80
2022/08/23 07:22:27;;;;;;;;;;;36.10;75.30;;;;;;5054333;28;19928;-79
2022/08/23 07:24:54;;;;;;;;;;;36.10;74.70;;;;;;5056176;28;19944;-78
2022/08/23 07:27:24;;;;;;;;;;;35.90;75.00;;;;;;5072397;28;20019;-80
2022/08/23 07:30:12;;;;;;;;;;;35.80;75.40;;;;;;5054922;28;19934;-79
2022/08/23 07:32:40;;;;;;;;;;;35.90;75.00;;;;;;5071011;28;19986;-78
2022/08/23 07:35:22;;;;;;;;;;;35.90;73.80;;;;;;5054735;28;19935;-78
2022/08/23 07:37:52;;;;;;;;;;;35.90;72.90;;;;;;5055257;28;20614;-78
2022/08/23 07:40:20;;;;;;;;;;;35.90;72.90;;;;;;5072110;28;19932;-79
2022/08/23 07:42:49;;;;;;;;;;;36.00;72.80;;;;;;5067686;28;19928;-79
2022/08/23 07:45:16;;;;;;;;;;;36.20;72.70;;;;;;5050073;28;19932;-78
2022/08/23 07:47:46;;;;;;;;;;;36.40;72.00;;;;;;5069877;28;21266;-79
2022/08/23 07:50:16;;;;;;;;;;;36.40;71.80;;;;;;5058171;28;19928;-78
2022/08/23 07:52:45;;;;;;;;;;;36.50;71.30;;;;;;5081389;28;19932;-78
2022/08/23 07:55:12;;;;;;;;;;;36.60;71.10;;;;;;5051276;28;20038;-79
2022/08/23 07:58:04;;;;;;;;;;;36.40;69.80;;;;;;5055633;28;20696;-77
2022/08/23 08:00:51;;;;;;;;;;;36.10;69.60;;;;;;5067554;28;20012;-78
2022/08/23 08:03:38;;;;;;;;;;;35.60;69.40;;;;;;5056908;28;20043;-78
2022/08/23 08:06:29;;;;;;;;;;;35.50;69.50;;;;;;5057945;28;19928;-78
2022/08/23 08:08:56;;;;;;;;;;;35.30;69.80;;;;;;5057419;28;19941;-79
2022/08/23 08:11:25;;;;;;;;;;;35.10;69.70;;;;;;5057007;28;19933;-79
2022/08/23 08:13:55;;;;;;;;;;;34.90;70.00;;;;;;5054212;28;21356;-79
2022/08/23 08:16:25;;;;;;;;;;;35.00;70.00;;;;;;5058937;28;19960;-79
2022/08/23 08:18:53;;;;;;;;;;;35.00;69.70;;;;;;5059828;28;19937;-79
2022/08/23 08:21:47;;;;;;;;;;;35.10;69.60;;;;;;5065251;28;20082;-79
2022/08/23 08:24:32;;;;;;;;;;;35.10;69.70;;;;;;5061684;28;19939;-78
2022/08/23 08:27:05;;;;;;;;;;;35.10;68.60;;;;;;5059856;28;20304;-77
2022/08/23 08:29:34;;;;;;;;;;;35.20;68.60;;;;;;5055204;28;20542;-77
2022/08/23 08:32:01;;;;;;;;;;;35.20;68.60;;;;;;5052224;28;19939;-77
2022/08/23 08:34:28;;;;;;;;;;;35.20;68.20;;;;;;5051168;28;19959;-77
2022/08/23 08:36:55;;;;;;;;;;;35.10;68.20;;;;;;5055783;28;20300;-77
2022/08/23 08:39:26;;;;;;;;;;;35.00;68.10;;;;;;5054682;28;19932;-77
2022/08/23 08:42:03;;;;;;;;;;;35.00;68.40;;;;;;5053281;28;19936;-77
2022/08/23 08:44:35;;;;;;;;;;;35.00;67.70;;;;;;5052285;28;19932;-77
2022/08/23 08:47:07;;;;;;;;;;;35.00;67.40;;;;;;5049925;28;19933;-76
2022/08/23 08:49:36;;;;;;;;;;;35.00;67.10;;;;;;5059625;28;19933;-79
2022/08/23 08:52:11;;;;;;;;;;;34.90;67.20;;;;;;5048470;28;20400;-78
2022/08/23 08:54:38;;;;;;;;;;;34.80;67.20;;;;;;5056950;28;19933;-78
2022/08/23 08:57:06;;;;;;;;;;;34.70;67.00;;;;;;5050618;28;20022;-78
2022/08/23 08:59:46;;;;;;;;;;;34.80;67.10;;;;;;5051101;28;20568;-79
2022/08/23 09:02:17;;;;;;;;;;;34.90;66.70;;;;;;5065215;28;19929;-78
2022/08/23 09:04:48;;;;;;;;;;;34.90;66.50;;;;;;5043664;28;19939;-78
2022/08/23 09:07:21;;;;;;;;;;;34.80;65.90;;;;;;5040933;28;20654;-76
2022/08/23 09:09:59;;;;;;;;;;;34.80;65.60;;;;;;5042196;28;20766;-77
2022/08/23 09:12:31;;;;;;;;;;;34.40;65.10;;;;;;5033748;28;19968;-77
2022/08/23 09:15:02;;;;;;;;;;;34.40;65.60;;;;;;5029414;28;19936;-76
2022/08/23 09:17:33;;;;;;;;;;;34.20;66.00;;;;;;5032644;28;19933;-76
2022/08/23 09:20:03;;;;;;;;;;;34.20;66.40;;;;;;5033656;28;19932;-76
2022/08/23 09:22:33;;;;;;;;;;;34.00;66.30;;;;;;5031952;28;20016;-76
2022/08/23 09:25:01;;;;;;;;;;;34.00;66.50;;;;;;5029659;28;20726;-76
2022/08/23 09:27:39;;;;;;;;;;;34.00;66.40;;;;;;5033053;28;20435;-76
2022/08/23 09:30:11;;;;;;;;;;;33.90;66.30;;;;;;5028413;28;19932;-77
2022/08/23 09:32:40;;;;;;;;;;;33.60;66.50;;;;;;5039395;28;19959;-77
2022/08/23 09:35:14;;;;;;;;;;;32.40;66.60;;;;;;5040789;28;21122;-76
2022/08/23 09:37:58;;;;;;;;;;;33.40;66.30;;;;;;5045036;28;20006;-76
2022/08/23 09:40:29;;;;;;;;;;;33.20;66.90;;;;;;5049799;28;19933;-82
2022/08/23 09:43:06;;;;;;;;;;;32.80;67.10;;;;;;5061509;28;20020;-81
2022/08/23 09:45:35;;;;;;;;;;;32.60;67.60;;;;;;5068021;28;20649;-81
2022/08/23 09:48:03;;;;;;;;;;;32.10;67.80;;;;;;5060242;28;19940;-81
2022/08/23 09:50:37;;;;;;;;;;;31.50;69.40;;;;;;5063004;28;19963;-81
2022/08/23 09:53:06;;;;;;;;;;;30.50;68.90;;;;;;5064280;28;19940;-82
2022/08/23 09:55:35;;;;;;;;;;;30.30;70.20;;;;;;5065421;28;19929;-82
2022/08/23 09:58:04;;;;;;;;;;;29.90;71.10;;;;;;5062331;28;20290;-82
2022/08/23 10:00:32;;;;;;;;;;;29.50;72.30;;;;;;5061394;28;19936;-81
2022/08/23 10:03:14;;;;;;;;;;;29.40;72.60;;;;;;5061770;28;20383;-82
2022/08/23 10:05:49;;;;;;;;;;;29.30;73.10;;;;;;5059954;28;19956;-82
2022/08/23 10:08:22;;;;;;;;;;;29.30;73.30;;;;;;5063832;28;20015;-82
2022/08/23 10:10:52;;;;;;;;;;;29.30;73.40;;;;;;5064001;28;19939;-82
2022/08/23 10:13:26;;;;;;;;;;;29.20;74.00;;;;;;5060129;28;19928;-81
2022/08/23 10:15:59;;;;;;;;;;;29.20;74.40;;;;;;5062227;28;19967;-81
2022/08/23 10:18:33;;;;;;;;;;;29.20;74.70;;;;;;5062771;28;19933;-81
2022/08/23 10:21:04;;;;;;;;;;;29.30;74.80;;;;;;5062662;28;19992;-81
2022/08/23 10:23:36;;;;;;;;;;;29.30;74.70;;;;;;5059814;28;19939;-80
2022/08/23 10:26:06;;;;;;;;;;;29.40;74.30;;;;;;5060696;28;19935;-81
2022/08/23 10:31:35;;;;;;;;;;;29.50;74.50;;;;;;5058698;28;19935;-81
2022/08/23 10:34:14;;;;;;;;;;;29.60;74.50;;;;;;5061114;28;20396;-81
2022/08/23 10:36:47;;;;;;;;;;;29.30;74.30;;;;;;5061373;28;19955;-81
2022/08/23 10:39:15;;;;;;;;;;;29.80;74.60;;;;;;5056646;28;19936;-81
2022/08/23 10:41:47;;;;;;;;;;;29.90;74.00;;;;;;5064223;28;21365;-81
2022/08/23 10:44:25;;;;;;;;;;;30.00;73.50;;;;;;5066023;28;19978;-81
2022/08/23 10:47:02;;;;;;;;;;;30.00;74.40;;;;;;5059505;28;19936;-82
2022/08/23 10:49:30;;;;;;;;;;;30.00;74.40;;;;;;5057181;28;19939;-82
2022/08/23 10:51:59;;;;;;;;;;;30.10;73.50;;;;;;5061919;28;19932;-82
2022/08/23 10:54:34;;;;;;;;;;;30.10;73.30;;;;;;5057948;28;19939;-82
2022/08/23 10:57:05;;;;;;;;;;;30.20;73.80;;;;;;5065837;28;19985;-82
2022/08/23 10:59:34;;;;;;;;;;;30.20;74.00;;;;;;5063116;28;19933;-82
2022/08/23 11:02:05;;;;;;;;;;;30.40;74.30;;;;;;5062472;28;19935;-82
2022/08/23 11:04:38;;;;;;;;;;;30.50;73.80;;;;;;5066064;28;19928;-81
2022/08/23 11:07:18;;;;;;;;;;;30.60;73.20;;;;;;5059088;28;20504;-83
2022/08/23 11:09:54;;;;;;;;;;;30.70;72.00;;;;;;5058205;28;21251;-81
2022/08/23 11:12:29;;;;;;;;;;;30.70;70.40;;;;;;5073922;28;19932;-81
2022/08/23 11:15:14;;;;;;;;;;;30.80;71.00;;;;;;5063791;28;19939;-81
2022/08/23 11:18:10;;;;;;;;;;;30.80;72.00;;;;;;5061939;28;19933;-81
2022/08/23 11:21:09;;;;;;;;;;;30.90;71.30;;;;;;5042087;28;19933;-81
2022/08/23 11:23:54;;;;;;;;;;;31.00;70.90;;;;;;5022500;28;21305;-82
2022/08/23 11:26:48;;;;;;;;;;;31.10;71.60;;;;;;5055315;28;19994;-82
2022/08/23 11:29:28;;;;;;;;;;;31.10;71.40;;;;;;5025530;28;19940;-82
2022/08/23 11:32:31;;;;;;;;;;;31.10;70.50;;;;;;5057680;28;20352;-81
2022/08/23 11:35:04;;;;;;;;;;;31.10;71.10;;;;;;5055589;28;19933;-81
2022/08/23 11:37:46;;;;;;;;;;;31.10;71.80;;;;;;5062145;28;20347;-81
2022/08/23 11:40:35;;;;;;;;;;;31.60;71.00;;;;;;5054589;28;20016;-82
2022/08/23 11:43:04;;;;;;;;;;;31.50;70.70;;;;;;5064261;28;19971;-77
2022/08/23 11:45:39;;;;;;;;;;;31.70;70.10;;;;;;5047294;28;20035;-77
2022/08/23 11:48:12;;;;;;;;;;;31.90;69.70;;;;;;5051709;28;20639;-79
2022/08/23 11:50:44;;;;;;;;;;;32.10;68.30;;;;;;5053050;28;19964;-77
2022/08/23 11:53:37;;;;;;;;;;;33.80;68.40;;;;;;5051930;28;20265;-78
2022/08/23 11:56:14;;;;;;;;;;;32.20;66.10;;;;;;5009846;28;19932;-78
2022/08/23 11:58:53;;;;;;;;;;;32.30;66.30;;;;;;5047274;28;19932;-78
2022/08/23 12:01:27;;;;;;;;;;;32.40;65.90;;;;;;5038840;28;19932;-79
2022/08/23 12:03:57;;;;;;;;;;;32.70;66.10;;;;;;5040574;28;20019;-77
2022/08/23 12:06:38;;;;;;;;;;;32.80;65.60;;;;;;5040471;28;21254;-77
2022/08/23 12:09:10;;;;;;;;;;;32.90;65.70;;;;;;5036358;28;19941;-77
2022/08/23 12:11:56;;;;;;;;;;;33.00;65.10;;;;;;5041975;28;19994;-77
2022/08/23 12:14:36;;;;;;;;;;;33.00;64.60;;;;;;5042619;28;19932;-77
2022/08/23 12:17:04;;;;;;;;;;;33.00;64.50;;;;;;5045735;28;20004;-77
2022/08/23 12:19:33;;;;;;;;;;;33.00;64.40;;;;;;5049945;28;19940;-77
2022/08/23 12:22:06;;;;;;;;;;;33.00;64.60;;;;;;5067220;28;19999;-77
2022/08/23 12:24:40;;;;;;;;;;;33.00;64.40;;;;;;5054998;28;19936;-78
2022/08/23 12:27:11;;;;;;;;;;;33.10;64.50;;;;;;5054440;28;19933;-77
2022/08/23 12:29:44;;;;;;;;;;;33.90;65.00;;;;;;5054472;28;19933;-77
2022/08/23 12:32:16;;;;;;;;;;;33.00;65.00;;;;;;5069375;28;20039;-77
2022/08/23 12:34:49;;;;;;;;;;;33.00;64.80;;;;;;5052010;28;19933;-77
2022/08/23 12:37:20;;;;;;;;;;;33.00;64.70;;;;;;5050776;28;19974;-77
2022/08/23 12:39:49;;;;;;;;;;;33.00;65.10;;;;;;5050600;28;20035;-77
2022/08/23 12:42:18;;;;;;;;;;;33.00;65.50;;;;;;5054544;28;20388;-77
2022/08/23 12:44:57;;;;;;;;;;;33.10;65.50;;;;;;5051822;28;20453;-77
2022/08/23 12:47:24;;;;;;;;;;;33.10;65.00;;;;;;5051005;28;20481;-77
2022/08/23 12:49:55;;;;;;;;;;;33.20;65.40;;;;;;5052893;28;19972;-77
2022/08/23 12:52:24;;;;;;;;;;;33.20;64.70;;;;;;5050350;28;20011;-77
2022/08/23 12:54:53;;;;;;;;;;;33.20;65.20;;;;;;5052939;28;19940;-77
2022/08/23 12:57:29;;;;;;;;;;;33.40;65.70;;;;;;5050663;28;19933;-77
2022/08/23 13:00:01;;;;;;;;;;;33.60;65.00;;;;;;5056160;28;19933;-76
2022/08/23 13:02:30;;;;;;;;;;;33.80;64.00;;;;;;5049502;28;19925;-77
2022/08/23 13:05:06;;;;;;;;;;;33.80;64.30;;;;;;5050225;28;19925;-76
2022/08/23 13:07:33;;;;;;;;;;;33.90;64.10;;;;;;5050256;28;20556;-77
2022/08/23 13:10:01;;;;;;;;;;;33.90;64.00;;;;;;5050912;28;20388;-76
2022/08/23 13:12:28;;;;;;;;;;;33.90;63.60;;;;;;5067128;28;19966;-76
2022/08/23 13:15:00;;;;;;;;;;;33.80;63.90;;;;;;5050392;28;20018;-76
2022/08/23 13:17:35;;;;;;;;;;;33.50;63.50;;;;;;5056501;28;19944;-77
2022/08/23 13:20:17;;;;;;;;;;;33.00;63.90;;;;;;5058097;28;19936;-76
2022/08/23 13:22:55;;;;;;;;;;;32.60;64.80;;;;;;5051724;28;19929;-76
2022/08/23 13:25:24;;;;;;;;;;;32.30;65.30;;;;;;5051271;28;20019;-77
2022/08/23 13:27:52;;;;;;;;;;;32.10;65.90;;;;;;5055161;28;19940;-77
2022/08/23 13:30:21;;;;;;;;;;;32.20;66.50;;;;;;5056045;28;20346;-78
2022/08/23 13:32:50;;;;;;;;;;;32.40;66.50;;;;;;5055592;28;19983;-79
2022/08/23 13:35:24;;;;;;;;;;;32.70;66.60;;;;;;5056731;28;21123;-76
2022/08/23 13:37:53;;;;;;;;;;;32.90;65.90;;;;;;5059142;28;20027;-76
2022/08/23 13:40:21;;;;;;;;;;;32.90;65.70;;;;;;5060221;28;19963;-76
2022/08/23 13:42:49;;;;;;;;;;;33.00;65.50;;;;;;5058303;28;19933;-76
2022/08/23 13:45:29;;;;;;;;;;;33.00;65.40;;;;;;5056767;28;20803;-77
2022/08/23 13:47:58;;;;;;;;;;;32.80;65.40;;;;;;5071217;28;20379;-77
2022/08/23 13:50:26;;;;;;;;;;;32.80;65.40;;;;;;5057397;28;19932;-77
2022/08/23 13:52:53;;;;;;;;;;;32.90;65.20;;;;;;5051152;28;19932;-78
2022/08/23 13:55:20;;;;;;;;;;;32.80;65.50;;;;;;5048639;28;20395;-76
2022/08/23 13:57:47;;;;;;;;;;;32.90;66.00;;;;;;5051469;28;19943;-77
2022/08/23 14:00:14;;;;;;;;;;;33.00;65.90;;;;;;5047929;28;19933;-81
2022/08/23 14:02:41;;;;;;;;;;;33.30;65.90;;;;;;5049228;28;20518;-78
2022/08/23 14:05:09;;;;;;;;;;;33.60;65.50;;;;;;5052549;28;20319;-78
2022/08/23 14:07:36;;;;;;;;;;;33.70;64.70;;;;;;5048469;28;19972;-78
2022/08/23 14:10:04;;;;;;;;;;;33.80;64.80;;;;;;5065234;28;20029;-77
2022/08/23 14:12:33;;;;;;;;;;;31.90;62.30;;;;;;5043158;28;19986;-77
2022/08/23 14:15:01;;;;;;;;;;;33.70;64.20;;;;;;5046746;28;19935;-77
2022/08/23 14:17:28;;;;;;;;;;;33.70;64.40;;;;;;5045357;28;19932;-77
2022/08/23 14:19:54;;;;;;;;;;;33.80;64.30;;;;;;5062715;28;20000;-77
2022/08/23 14:22:23;;;;;;;;;;;34.00;63.60;;;;;;5062996;28;20701;-77
2022/08/23 14:24:50;;;;;;;;;;;34.00;64.20;;;;;;5044956;28;19932;-77
2022/08/23 14:27:17;;;;;;;;;;;34.20;63.60;;;;;;5042056;28;19943;-77
2022/08/23 14:29:43;;;;;;;;;;;34.40;63.50;;;;;;5051080;28;19963;-76
2022/08/23 14:32:10;;;;;;;;;;;34.50;63.50;;;;;;5049321;28;19933;-77
2022/08/23 14:34:37;;;;;;;;;;;34.50;62.80;;;;;;5064842;28;19939;-77
2022/08/23 14:37:04;;;;;;;;;;;34.40;62.90;;;;;;5049360;28;19978;-76
2022/08/23 14:39:32;;;;;;;;;;;34.40;63.00;;;;;;5047474;28;20319;-76
2022/08/23 14:41:59;;;;;;;;;;;34.30;63.20;;;;;;5047986;28;19993;-76
2022/08/23 14:44:26;;;;;;;;;;;34.40;63.40;;;;;;5046697;28;19936;-76
2022/08/23 14:46:53;;;;;;;;;;;34.40;63.10;;;;;;5051361;28;19933;-76
2022/08/23 14:49:20;;;;;;;;;;;34.10;62.80;;;;;;5071439;28;19962;-76
2022/08/23 14:51:49;;;;;;;;;;;33.80;63.00;;;;;;5054848;28;19939;-76
2022/08/23 14:54:17;;;;;;;;;;;33.60;62.90;;;;;;5053316;28;19929;-77